CMM5899 SKSP-SKBQ
Flight info
| Callsign | CMM5899 |
|---|---|
| Flight time | N/A |
| Altitude | 37000 |
| Route | TIMRO3B TIMRO DCT ALPON DCT BUTES DCT VARON VARON2C |
| Aircraft | A321/M-SDE3FGHIRWY/LB1 |
Departure
| Time | 2026-04-28 22:21 |
|---|---|
| Airport | Gustavo Rojas Pinilla International Airport (SKSP) |
Arrival
| Time | N/A |
|---|---|
| Airport | Ernesto Cortissoz International Airport (SKBQ) |
| Time | Latitude | Longitude | Altitude | Speed | Heading |
|---|---|---|---|---|---|
| 2026-04-28 21:05 | 12.58666 | -81.70266 | 33 ft | 0 kts | 149° |
| 2026-04-28 22:11 | 12.58680 | -81.70273 | 32 ft | 4 kts | 157° |
| 2026-04-28 22:11 | 12.58705 | -81.70281 | 29 ft | 4 kts | 179° |
| 2026-04-28 22:11 | 12.58731 | -81.70277 | 31 ft | 4 kts | 206° |
| 2026-04-28 22:12 | 12.58752 | -81.70261 | 30 ft | 4 kts | 234° |
| 2026-04-28 22:12 | 12.58741 | -81.70277 | 30 ft | 4 kts | 238° |
| 2026-04-28 22:12 | 12.58727 | -81.70301 | 31 ft | 4 kts | 239° |
| 2026-04-28 22:12 | 12.58720 | -81.70314 | 32 ft | 1 kts | 238° |
| 2026-04-28 22:15 | 12.58715 | -81.70322 | 33 ft | 3 kts | 238° |
| 2026-04-28 22:16 | 12.58706 | -81.70350 | 34 ft | 6 kts | 266° |
| 2026-04-28 22:16 | 12.58724 | -81.70406 | 34 ft | 12 kts | 292° |
| 2026-04-28 22:16 | 12.58718 | -81.70502 | 35 ft | 16 kts | 242° |
| 2026-04-28 22:16 | 12.58657 | -81.70609 | 40 ft | 17 kts | 239° |
| 2026-04-28 22:17 | 12.58605 | -81.70700 | 42 ft | 13 kts | 240° |
| 2026-04-28 22:17 | 12.58559 | -81.70779 | 48 ft | 16 kts | 239° |
| 2026-04-28 22:17 | 12.58481 | -81.70914 | 51 ft | 27 kts | 239° |
| 2026-04-28 22:17 | 12.58385 | -81.71081 | 52 ft | 26 kts | 239° |
| 2026-04-28 22:18 | 12.58296 | -81.71234 | 56 ft | 24 kts | 239° |
| 2026-04-28 22:18 | 12.58214 | -81.71376 | 64 ft | 22 kts | 239° |
| 2026-04-28 22:18 | 12.58139 | -81.71506 | 57 ft | 20 kts | 239° |
| 2026-04-28 22:18 | 12.58072 | -81.71623 | 62 ft | 18 kts | 239° |
| 2026-04-28 22:19 | 12.58012 | -81.71726 | 66 ft | 19 kts | 239° |
| 2026-04-28 22:19 | 12.57927 | -81.71878 | 73 ft | 26 kts | 240° |
| 2026-04-28 22:19 | 12.57828 | -81.71997 | 84 ft | 15 kts | 213° |
| 2026-04-28 22:19 | 12.57827 | -81.72033 | 87 ft | 2 kts | 2° |
| 2026-04-28 22:20 | 12.57843 | -81.72018 | 85 ft | 7 kts | 51° |
| 2026-04-28 22:20 | 12.57892 | -81.71927 | 87 ft | 28 kts | 63° |
| 2026-04-28 22:20 | 12.58127 | -81.71526 | 66 ft | 100 kts | 59° |
| 2026-04-28 22:20 | 12.58570 | -81.70760 | 50 ft | 151 kts | 59° |
| 2026-04-28 22:21 | 12.59111 | -81.69784 | 528 ft | 156 kts | 67° |
| 2026-04-28 22:21 | 12.59248 | -81.68647 | 895 ft | 174 kts | 95° |
| 2026-04-28 22:21 | 12.59114 | -81.67335 | 1139 ft | 195 kts | 93° |
| 2026-04-28 22:21 | 12.58986 | -81.65872 | 1291 ft | 221 kts | 93° |
| 2026-04-28 22:22 | 12.58734 | -81.64187 | 1436 ft | 255 kts | 102° |
| 2026-04-28 22:22 | 12.58244 | -81.62349 | 1811 ft | 279 kts | 104° |
| 2026-04-28 22:22 | 12.57694 | -81.60378 | 2384 ft | 293 kts | 103° |
| 2026-04-28 22:22 | 12.57160 | -81.58341 | 3205 ft | 299 kts | 103° |
| 2026-04-28 22:23 | 12.56632 | -81.56265 | 4079 ft | 302 kts | 103° |
| 2026-04-28 22:23 | 12.56102 | -81.54176 | 4896 ft | 304 kts | 103° |
| 2026-04-28 22:23 | 12.55564 | -81.52061 | 5666 ft | 308 kts | 103° |
| 2026-04-28 22:23 | 12.55022 | -81.49918 | 6423 ft | 313 kts | 103° |
| 2026-04-28 22:24 | 12.54472 | -81.47743 | 7182 ft | 317 kts | 103° |
| 2026-04-28 22:24 | 12.53913 | -81.45549 | 7900 ft | 321 kts | 103° |
| 2026-04-28 22:24 | 12.53343 | -81.43324 | 8591 ft | 325 kts | 103° |
| 2026-04-28 22:24 | 12.52768 | -81.41099 | 9230 ft | 329 kts | 104° |
| 2026-04-28 22:25 | 12.52177 | -81.38820 | 9857 ft | 334 kts | 104° |
| 2026-04-28 22:25 | 12.51580 | -81.36513 | 10499 ft | 337 kts | 104° |
| 2026-04-28 22:25 | 12.50979 | -81.34178 | 11135 ft | 341 kts | 104° |
| 2026-04-28 22:25 | 12.50375 | -81.31820 | 11755 ft | 345 kts | 104° |
| 2026-04-28 22:26 | 12.49761 | -81.29429 | 12381 ft | 349 kts | 104° |
| 2026-04-28 22:26 | 12.49138 | -81.27015 | 12998 ft | 353 kts | 105° |
| 2026-04-28 22:26 | 12.48509 | -81.24575 | 13616 ft | 356 kts | 105° |
| 2026-04-28 22:26 | 12.47872 | -81.22111 | 14209 ft | 360 kts | 105° |
| 2026-04-28 22:27 | 12.47229 | -81.19616 | 14784 ft | 364 kts | 104° |
| 2026-04-28 22:27 | 12.46580 | -81.17101 | 15355 ft | 367 kts | 105° |
| 2026-04-28 22:27 | 12.45924 | -81.14562 | 15904 ft | 371 kts | 105° |
| 2026-04-28 22:27 | 12.45264 | -81.12002 | 16483 ft | 374 kts | 105° |
| 2026-04-28 22:28 | 12.44594 | -81.09410 | 17029 ft | 377 kts | 105° |
| 2026-04-28 22:28 | 12.43918 | -81.06804 | 17554 ft | 381 kts | 105° |
| 2026-04-28 22:28 | 12.43239 | -81.04175 | 18078 ft | 384 kts | 105° |
| 2026-04-28 22:28 | 12.42554 | -81.01520 | 18573 ft | 387 kts | 105° |
| 2026-04-28 22:29 | 12.41874 | -80.98881 | 19042 ft | 390 kts | 105° |
| 2026-04-28 22:29 | 12.41178 | -80.96185 | 19490 ft | 394 kts | 105° |
| 2026-04-28 22:29 | 12.40472 | -80.93462 | 19938 ft | 397 kts | 105° |
| 2026-04-28 22:29 | 12.39762 | -80.90722 | 20372 ft | 400 kts | 105° |
| 2026-04-28 22:30 | 12.39046 | -80.87956 | 20806 ft | 403 kts | 105° |
| 2026-04-28 22:30 | 12.38325 | -80.85175 | 21202 ft | 406 kts | 105° |
| 2026-04-28 22:30 | 12.37595 | -80.82368 | 21614 ft | 409 kts | 106° |
| 2026-04-28 22:30 | 12.36861 | -80.79540 | 21999 ft | 412 kts | 106° |
| 2026-04-28 22:31 | 12.36123 | -80.76695 | 22377 ft | 415 kts | 106° |
| 2026-04-28 22:31 | 12.35380 | -80.73828 | 22760 ft | 418 kts | 106° |
| 2026-04-28 22:31 | 12.34630 | -80.70944 | 23128 ft | 421 kts | 106° |
| 2026-04-28 22:31 | 12.33872 | -80.68039 | 23492 ft | 424 kts | 106° |
| 2026-04-28 22:32 | 12.33109 | -80.65117 | 23839 ft | 426 kts | 106° |
| 2026-04-28 22:32 | 12.32342 | -80.62178 | 24171 ft | 429 kts | 107° |
| 2026-04-28 22:32 | 12.31571 | -80.59220 | 24495 ft | 432 kts | 107° |
| 2026-04-28 22:32 | 12.30795 | -80.56243 | 24814 ft | 435 kts | 107° |
| 2026-04-28 22:33 | 12.30016 | -80.53245 | 25124 ft | 438 kts | 107° |
| 2026-04-28 22:33 | 12.29233 | -80.50229 | 25437 ft | 440 kts | 107° |
| 2026-04-28 22:33 | 12.28444 | -80.47193 | 25744 ft | 443 kts | 107° |
| 2026-04-28 22:33 | 12.27651 | -80.44145 | 26046 ft | 445 kts | 107° |
| 2026-04-28 22:34 | 12.26850 | -80.41075 | 26352 ft | 448 kts | 107° |
| 2026-04-28 22:34 | 12.26052 | -80.38032 | 26643 ft | 450 kts | 108° |
| 2026-04-28 22:34 | 12.25240 | -80.34930 | 26931 ft | 453 kts | 108° |
| 2026-04-28 22:34 | 12.24428 | -80.31809 | 27214 ft | 455 kts | 108° |
| 2026-04-28 22:35 | 12.23614 | -80.28677 | 27486 ft | 457 kts | 108° |
| 2026-04-28 22:35 | 12.22792 | -80.25523 | 27757 ft | 460 kts | 108° |
| 2026-04-28 22:35 | 12.21968 | -80.22356 | 28031 ft | 462 kts | 108° |
| 2026-04-28 22:35 | 12.21136 | -80.19178 | 28299 ft | 464 kts | 108° |
| 2026-04-28 22:36 | 12.20298 | -80.15984 | 28560 ft | 466 kts | 108° |
| 2026-04-28 22:36 | 12.19458 | -80.12774 | 28812 ft | 469 kts | 108° |
| 2026-04-28 22:36 | 12.18611 | -80.09550 | 29048 ft | 470 kts | 108° |
| 2026-04-28 22:36 | 12.17756 | -80.06313 | 29292 ft | 473 kts | 108° |
| 2026-04-28 22:37 | 12.16897 | -80.03056 | 29538 ft | 475 kts | 108° |
| 2026-04-28 22:37 | 12.16037 | -79.99786 | 29775 ft | 477 kts | 108° |
| 2026-04-28 22:37 | 12.15179 | -79.96511 | 30015 ft | 479 kts | 108° |
| 2026-04-28 22:37 | 12.14326 | -79.93260 | 30226 ft | 481 kts | 109° |
| 2026-04-28 22:38 | 12.13739 | -79.91027 | 30386 ft | 482 kts | 109° |
| 2026-04-28 22:38 | 12.13163 | -79.88836 | 30539 ft | 483 kts | 109° |